createdAt,value
2019-04-29T05:38:04.218Z,10.60
2019-04-29T05:40:44.011Z,11.05
2019-04-29T05:43:15.357Z,10.53
2019-04-29T05:46:07.300Z,10.53
2019-04-29T05:48:35.791Z,9.60
2019-04-29T05:51:27.288Z,10.30
2019-04-29T05:53:59.488Z,9.90
2019-04-29T05:56:28.855Z,10.55
2019-04-29T05:58:58.339Z,9.93
2019-04-29T06:01:29.932Z,9.40
2019-04-29T06:03:59.378Z,10.53
2019-04-29T06:06:29.875Z,10.40
2019-04-29T06:08:59.376Z,10.08
2019-04-29T06:11:29.016Z,10.43
2019-04-29T06:13:58.482Z,10.00
2019-04-29T06:16:28.406Z,10.30
2019-04-29T06:19:00.172Z,9.40
2019-04-29T06:21:29.138Z,9.95
2019-04-29T06:23:59.370Z,9.00
2019-04-29T06:26:30.144Z,9.18
2019-04-29T06:28:59.736Z,8.53
2019-04-29T06:31:29.376Z,9.35
2019-04-29T06:34:00.626Z,9.15
2019-04-29T06:36:30.511Z,8.98
2019-04-29T06:38:59.836Z,9.73
2019-04-29T06:41:29.610Z,10.05
2019-04-29T06:44:00.669Z,8.85
2019-04-29T06:46:31.602Z,9.30
2019-04-29T06:49:10.077Z,9.53
2019-04-29T06:51:32.382Z,10.32
2019-04-29T06:54:02.059Z,10.28
2019-04-29T06:56:31.702Z,10.88
2019-04-29T06:59:01.044Z,9.38
2019-04-29T07:01:33.111Z,9.45
2019-04-29T07:04:02.234Z,10.00
2019-04-29T07:06:31.914Z,10.05
2019-04-29T07:09:01.464Z,9.70
2019-04-29T07:11:36.372Z,10.10
2019-04-29T07:14:02.975Z,10.08
2019-04-29T07:16:32.944Z,10.48
2019-04-29T07:19:02.509Z,10.15
2019-04-29T07:21:32.196Z,9.70
2019-04-29T07:24:01.896Z,10.20
2019-04-29T07:26:31.784Z,10.05
2019-04-29T07:29:01.581Z,9.95
2019-04-29T07:31:33.178Z,10.50
2019-04-29T07:34:02.646Z,10.18
2019-04-29T07:36:32.736Z,9.08
2019-04-29T07:39:02.201Z,8.70
2019-04-29T07:41:33.189Z,9.28
2019-04-29T07:44:03.095Z,9.10
2019-04-29T07:46:55.126Z,9.58
2019-04-29T07:49:07.085Z,9.90
2019-04-29T07:51:40.822Z,10.72
2019-04-29T07:54:11.035Z,10.25
2019-04-29T07:56:43.505Z,9.50
2019-04-29T07:59:13.337Z,9.70
2019-04-29T08:01:43.345Z,9.83
2019-04-29T08:04:13.122Z,9.85
2019-04-29T08:06:44.429Z,9.88
2019-04-29T08:09:14.397Z,9.10
2019-04-29T08:11:44.114Z,10.53
2019-04-29T08:14:13.919Z,10.15
2019-04-29T08:16:43.646Z,9.55
2019-04-29T08:19:13.171Z,9.55
2019-04-29T08:21:45.605Z,9.63
2019-04-29T08:24:15.933Z,9.10
2019-04-29T08:26:47.595Z,9.53
2019-04-29T08:29:17.250Z,9.08
2019-04-29T08:31:47.303Z,9.45
2019-04-29T08:34:18.760Z,9.38
2019-04-29T08:36:59.046Z,10.48
2019-04-29T08:39:29.780Z,9.65
2019-04-29T08:42:03.793Z,10.23
2019-04-29T08:44:54.780Z,9.65
2019-04-29T08:47:31.636Z,10.72
2019-04-29T08:49:59.574Z,9.70
2019-04-29T08:52:29.221Z,10.20
2019-04-29T08:54:58.608Z,9.60
2019-04-29T08:57:31.849Z,9.58
2019-04-29T08:59:59.278Z,10.10
2019-04-29T09:02:34.948Z,10.93
2019-04-29T09:05:01.226Z,10.20
2019-04-29T09:07:30.859Z,10.65
2019-04-29T09:10:02.052Z,10.25
2019-04-29T09:12:31.859Z,10.25
2019-04-29T09:15:02.105Z,11.20
2019-04-29T09:17:31.530Z,11.43
2019-04-29T09:20:01.015Z,12.05
2019-04-29T09:22:32.256Z,11.60
2019-04-29T09:25:21.382Z,13.55
2019-04-29T09:27:51.431Z,12.35
2019-04-29T09:30:21.299Z,13.85
2019-04-29T09:32:50.888Z,13.62
2019-04-29T09:35:20.476Z,13.45
2019-04-29T09:37:53.740Z,15.43
2019-04-29T09:40:25.301Z,16.12
2019-04-29T09:43:15.869Z,16.52
2019-04-29T09:46:00.283Z,16.30
2019-04-29T09:48:29.970Z,15.58
2019-04-29T09:50:59.499Z,15.48
2019-04-29T09:53:28.954Z,14.95
2019-04-29T09:55:58.819Z,15.80
2019-04-29T09:58:28.247Z,16.87
2019-04-29T10:01:19.127Z,17.92
2019-04-29T10:03:53.843Z,17.67
2019-04-29T10:06:27.824Z,22.00
2019-04-29T10:08:57.478Z,23.02
2019-04-29T10:11:27.006Z,24.55
2019-04-29T10:13:56.917Z,23.92
2019-04-29T10:16:31.645Z,25.35
2019-04-29T10:19:05.228Z,24.95
2019-04-29T10:21:33.147Z,23.22
2019-04-29T10:24:02.760Z,25.43
2019-04-29T10:26:34.437Z,23.65
2019-04-29T10:29:05.480Z,25.77
2019-04-29T10:31:35.141Z,26.10
2019-04-29T10:34:06.222Z,27.30
2019-04-29T10:36:35.617Z,28.02
2019-04-29T10:39:09.413Z,28.10
2019-04-29T10:41:43.251Z,29.32
2019-04-29T10:44:32.595Z,28.62
2019-04-29T10:47:08.921Z,30.08
2019-04-29T10:49:42.739Z,31.33
2019-04-29T10:52:12.281Z,30.02
2019-04-29T10:54:42.643Z,28.45
2019-04-29T10:57:14.714Z,29.07
2019-04-29T10:59:46.200Z,30.02
2019-04-29T11:02:17.333Z,31.60
2019-04-29T11:04:48.401Z,29.42
2019-04-29T11:07:28.365Z,31.25
2019-04-29T11:09:59.546Z,29.85
2019-04-29T11:12:29.139Z,32.65
2019-04-29T11:15:01.394Z,32.33
2019-04-29T11:17:29.694Z,32.78
2019-04-29T11:19:59.312Z,35.80
2019-04-29T11:22:33.875Z,49.85
2019-04-29T11:25:12.242Z,49.80
2019-04-29T11:27:46.235Z,69.58
2019-04-29T11:30:17.259Z,51.80
2019-04-29T11:32:48.602Z,40.35
2019-04-29T11:35:19.801Z,38.42
2019-04-29T11:37:50.082Z,38.10
2019-04-29T11:40:26.031Z,40.15
2019-04-29T11:42:52.581Z,41.23
2019-04-29T11:45:22.444Z,40.80
2019-04-29T11:47:52.349Z,41.08
2019-04-29T11:50:26.677Z,40.73
2019-04-29T11:52:55.663Z,40.98
2019-04-29T11:55:25.271Z,43.00
2019-04-29T11:57:59.123Z,40.10
2019-04-29T12:00:47.991Z,42.35
2019-04-29T12:03:19.921Z,40.70
2019-04-29T12:05:51.211Z,42.20
2019-04-29T12:08:21.446Z,41.60
2019-04-29T12:11:06.169Z,42.78
2019-04-29T12:13:30.106Z,42.43
2019-04-29T12:16:01.322Z,44.85
2019-04-29T12:18:42.230Z,44.18
2019-04-29T12:21:19.664Z,44.48
2019-04-29T12:23:52.121Z,44.00
2019-04-29T12:26:20.750Z,42.70
2019-04-29T12:28:50.174Z,45.43
2019-04-29T12:31:31.564Z,42.05
2019-04-29T12:34:19.401Z,43.05
2019-04-29T12:36:55.985Z,43.40
2019-04-29T12:39:44.864Z,43.00
2019-04-29T12:42:29.040Z,43.30
2019-04-29T12:45:02.894Z,43.95
2019-04-29T12:47:34.051Z,44.80
2019-04-29T12:50:04.481Z,45.33
2019-04-29T12:52:34.060Z,44.33
2019-04-29T12:55:19.219Z,45.10
2019-04-29T12:57:35.402Z,45.03
2019-04-29T13:00:08.859Z,44.40
2019-04-29T13:03:00.152Z,47.03
2019-04-29T13:05:31.799Z,45.25
2019-04-29T13:08:03.242Z,48.70
2019-04-29T13:10:42.549Z,47.27
2019-04-29T13:13:11.545Z,46.02
2019-04-29T13:15:43.952Z,45.23
2019-04-29T13:18:23.103Z,45.48
2019-04-29T13:20:50.769Z,44.75
2019-04-29T13:23:33.679Z,46.83
2019-04-29T13:25:51.064Z,44.38
2019-04-29T13:28:29.930Z,48.38
2019-04-29T13:30:56.834Z,46.28
2019-04-29T13:33:22.982Z,48.42
2019-04-29T13:35:53.974Z,47.85
2019-04-29T13:38:23.583Z,46.70
2019-04-29T13:41:11.362Z,45.25
2019-04-29T13:43:25.906Z,47.60
2019-04-29T13:46:05.088Z,49.25
2019-04-29T13:48:54.722Z,47.40
2019-04-29T13:51:09.034Z,48.55
2019-04-29T13:53:38.818Z,49.38
2019-04-29T13:56:11.821Z,50.50
2019-04-29T13:58:39.441Z,48.00
2019-04-29T14:01:33.001Z,49.88
2019-04-29T14:04:06.140Z,51.90
2019-04-29T14:06:37.344Z,46.63
2019-04-29T14:09:08.684Z,51.30
2019-04-29T14:11:38.630Z,51.13
2019-04-29T14:14:08.092Z,52.00
2019-04-29T14:16:38.135Z,48.25
2019-04-29T14:19:08.762Z,51.58
2019-04-29T14:21:38.636Z,46.15
2019-04-29T14:24:08.859Z,44.67
2019-04-29T14:26:42.025Z,52.85
2019-04-29T14:29:11.073Z,51.70
2019-04-29T14:31:41.894Z,48.98
2019-04-29T14:34:16.474Z,60.48
2019-04-29T14:36:44.337Z,56.48
2019-04-29T14:39:18.929Z,51.00
2019-04-29T14:41:46.661Z,49.65
2019-04-29T14:44:17.806Z,47.25
2019-04-29T14:46:56.196Z,48.45
2019-04-29T14:49:30.714Z,50.15
2019-04-29T14:52:03.258Z,47.23
2019-04-29T14:54:31.362Z,46.98
2019-04-29T14:57:01.114Z,50.95
2019-04-29T14:59:31.197Z,53.00
2019-04-29T15:02:16.224Z,51.13
2019-04-29T15:04:41.372Z,49.85
2019-04-29T15:07:11.241Z,48.83
2019-04-29T15:09:46.834Z,47.93
2019-04-29T15:12:24.881Z,53.75
2019-04-29T15:15:05.302Z,55.92
2019-04-29T15:17:40.337Z,66.37
2019-04-29T15:20:30.244Z,57.40
2019-04-29T15:22:58.972Z,47.50
2019-04-29T15:25:28.683Z,50.17
2019-04-29T15:27:58.226Z,53.90
2019-04-29T15:30:31.683Z,49.73
2019-04-29T15:32:59.767Z,48.78
2019-04-29T15:35:29.537Z,45.90
2019-04-29T15:37:59.258Z,46.50
2019-04-29T15:40:29.002Z,53.63
2019-04-29T15:42:58.809Z,51.42
2019-04-29T15:45:32.439Z,50.58
2019-04-29T15:47:59.851Z,53.70
2019-04-29T15:50:37.112Z,50.52
2019-04-29T15:53:08.088Z,54.45
2019-04-29T15:55:39.492Z,49.05
2019-04-29T15:58:09.357Z,50.25
2019-04-29T16:00:40.433Z,46.55
2019-04-29T16:06:04.361Z,55.35
2019-04-29T16:08:35.398Z,53.50
2019-04-29T16:11:23.115Z,55.20
2019-04-29T16:14:08.399Z,54.50
2019-04-29T16:16:24.083Z,57.13
2019-04-29T16:18:53.630Z,40.30
2019-04-29T16:21:23.317Z,36.80
2019-04-29T16:23:57.523Z,51.65
2019-04-29T16:28:55.312Z,57.30
2019-04-29T16:31:25.612Z,56.48
2019-04-29T16:33:55.827Z,50.15
2019-04-29T16:36:26.518Z,58.60
2019-04-29T16:38:56.048Z,55.15
2019-04-29T16:41:27.521Z,49.48
2019-04-29T16:43:57.786Z,46.37
2019-04-29T16:46:37.444Z,54.13
2019-04-29T16:49:04.229Z,57.40
2019-04-29T16:51:33.815Z,73.45
2019-04-29T16:54:03.346Z,58.45
2019-04-29T16:56:33.444Z,67.30
2019-04-29T16:59:09.356Z,67.95
2019-04-29T17:01:34.489Z,56.85
2019-04-29T17:04:05.275Z,66.47
2019-04-29T17:06:41.533Z,58.15
2019-04-29T17:09:15.062Z,56.90
2019-04-29T17:11:50.542Z,30.30
2019-04-29T17:14:18.639Z,37.93
2019-04-29T17:16:48.337Z,48.68
2019-04-29T17:19:18.152Z,31.35
2019-04-29T17:21:47.798Z,47.70
2019-04-29T17:24:17.724Z,46.63
2019-04-29T17:26:52.165Z,46.50
2019-04-29T17:29:39.241Z,51.35
2019-04-29T17:32:08.589Z,52.10
2019-04-29T17:34:58.327Z,54.77
2019-04-29T17:35:15.456Z,51.90
2019-04-29T17:35:19.118Z,59.53
2019-04-29T17:37:11.354Z,42.83
2019-04-29T17:39:41.023Z,44.85
2019-04-29T17:42:10.660Z,53.95
2019-04-29T17:44:44.866Z,51.77
2019-04-29T17:47:16.302Z,59.73
2019-04-29T17:49:47.683Z,58.00
2019-04-29T17:52:22.218Z,50.23
2019-04-29T17:54:57.182Z,46.23
2019-04-29T17:57:31.447Z,50.65
2019-04-29T18:00:05.135Z,53.73
2019-04-29T18:02:40.410Z,58.92
2019-04-29T18:05:17.857Z,52.25
2019-04-29T18:08:02.972Z,54.08
2019-04-29T18:10:40.029Z,52.13
2019-04-29T18:13:08.279Z,48.33
2019-04-29T18:15:51.673Z,68.02
2019-04-29T18:18:17.412Z,57.40
2019-04-29T18:20:48.317Z,60.67
2019-04-29T18:23:22.217Z,52.62
2019-04-29T18:26:08.685Z,47.30
2019-04-29T18:28:50.657Z,59.45
2019-04-29T18:31:26.456Z,56.00
2019-04-29T18:33:58.173Z,52.17
2019-04-29T18:36:26.751Z,51.42
2019-04-29T18:39:00.404Z,34.85
2019-04-29T18:41:32.051Z,50.33
2019-04-29T18:44:03.067Z,44.03
2019-04-29T18:46:35.144Z,54.70
2019-04-29T18:49:06.622Z,29.00
2019-04-29T18:51:36.410Z,46.98
2019-04-29T18:54:06.232Z,39.58
2019-04-29T18:56:36.633Z,52.70
2019-04-29T18:59:08.755Z,69.97
2019-04-29T19:01:38.527Z,52.93
2019-04-29T19:04:16.757Z,51.20
2019-04-29T19:06:44.230Z,55.83
2019-04-29T19:09:19.810Z,56.10
2019-04-29T19:11:46.277Z,56.98
2019-04-29T19:14:15.881Z,53.90
2019-04-29T19:16:45.967Z,61.15
2019-04-29T19:19:15.601Z,57.43
2019-04-29T19:21:45.503Z,64.25
2019-04-29T19:24:18.008Z,62.93
2019-04-29T19:26:47.902Z,66.57
2019-04-29T19:29:21.119Z,65.00
2019-04-29T19:31:50.738Z,64.10
2019-04-29T19:34:20.611Z,64.27
2019-04-29T19:36:50.759Z,59.25
2019-04-29T19:39:23.372Z,68.75
2019-04-29T19:41:53.326Z,67.53
2019-04-29T19:44:26.483Z,65.57
2019-04-29T19:46:56.936Z,62.58
2019-04-29T19:49:25.848Z,63.65
2019-04-29T19:51:55.601Z,67.03
2019-04-29T19:54:28.424Z,59.40
2019-04-29T19:57:03.428Z,62.98
2019-04-29T19:59:28.719Z,67.97
2019-04-29T20:02:05.558Z,68.35
2019-04-29T20:04:32.000Z,68.78
2019-04-29T20:07:06.280Z,68.47
2019-04-29T20:09:33.719Z,66.47
2019-04-29T20:12:11.423Z,65.08
2019-04-29T20:14:37.598Z,65.45
2019-04-29T20:17:12.837Z,60.45
2019-04-29T20:19:55.313Z,56.05
2019-04-29T20:22:18.596Z,58.35
2019-04-29T20:24:50.929Z,60.90
2019-04-29T20:27:21.296Z,68.05
2019-04-29T20:29:51.379Z,70.60
2019-04-29T20:32:22.401Z,70.30
2019-04-29T20:34:52.816Z,54.35
2019-04-29T20:37:26.150Z,68.67
2019-04-29T20:39:57.273Z,63.52
2019-04-29T20:42:27.158Z,60.98
2019-04-29T20:44:56.989Z,66.72
2019-04-29T20:47:37.655Z,62.80
2019-04-29T20:49:58.548Z,58.40
2019-04-29T20:52:29.898Z,62.60
2019-04-29T20:55:02.423Z,58.25
2019-04-29T20:57:31.489Z,63.13
2019-04-29T21:00:01.099Z,61.45
2019-04-29T21:02:34.487Z,59.00
2019-04-29T21:05:02.118Z,59.13
2019-04-29T21:07:32.372Z,58.55
2019-04-29T21:10:06.723Z,58.63
2019-04-29T21:12:38.143Z,59.42
2019-04-29T21:15:14.700Z,59.58
2019-04-29T21:17:41.956Z,60.58
2019-04-29T21:20:12.859Z,63.73
2019-04-29T21:22:42.989Z,61.88
2019-04-29T21:25:12.647Z,65.97
2019-04-29T21:27:42.292Z,64.42
2019-04-29T21:30:11.836Z,67.40
2019-04-29T21:32:41.396Z,69.22
2019-04-29T21:35:17.058Z,69.32
2019-04-29T21:38:01.780Z,68.78
2019-04-29T21:40:35.927Z,68.83
2019-04-29T21:43:13.738Z,64.45
2019-04-29T21:45:39.909Z,65.80
2019-04-29T21:48:09.382Z,72.70
2019-04-29T21:50:38.862Z,73.50
2019-04-29T21:53:09.460Z,72.55
2019-04-29T21:55:38.876Z,76.30
2019-04-29T21:58:08.395Z,75.42
2019-04-29T22:00:38.137Z,74.05
2019-04-29T22:03:09.361Z,74.55
2019-04-29T22:05:38.933Z,80.15
2019-04-29T22:08:08.398Z,77.72
2019-04-29T22:10:37.893Z,78.92
2019-04-29T22:13:07.896Z,78.33
2019-04-29T22:15:41.071Z,78.57
2019-04-29T22:18:13.916Z,78.45
2019-04-29T22:20:42.300Z,77.95
2019-04-29T22:23:13.441Z,80.77
2019-04-29T22:25:45.661Z,84.72
2019-04-29T22:28:16.039Z,85.25
2019-04-29T22:30:45.271Z,86.87
2019-04-29T22:33:15.362Z,87.62
2019-04-29T22:35:46.211Z,90.32
2019-04-29T22:38:16.692Z,85.95
2019-04-29T22:40:47.172Z,85.53
2019-04-29T22:43:25.345Z,81.45
2019-04-29T22:45:54.964Z,98.52
2019-04-29T22:48:25.636Z,84.32
2019-04-29T22:50:55.654Z,90.75
2019-04-29T22:53:26.216Z,91.12
2019-04-29T22:55:56.526Z,87.53
2019-04-29T22:58:27.313Z,93.10
2019-04-29T23:00:56.905Z,103.53
2019-04-29T23:03:26.364Z,83.15
2019-04-29T23:06:00.126Z,96.90
2019-04-29T23:08:29.704Z,101.67
2019-04-29T23:10:59.856Z,85.45
2019-04-29T23:13:31.165Z,104.43
2019-04-29T23:16:02.261Z,88.92
2019-04-29T23:18:38.513Z,87.72
2019-04-29T23:21:05.285Z,98.20
2019-04-29T23:23:42.517Z,85.92
2019-04-29T23:26:12.073Z,97.37
2019-04-29T23:28:41.461Z,83.90
2019-04-29T23:31:11.114Z,88.17
2019-04-29T23:33:40.707Z,79.50
2019-04-29T23:36:14.250Z,76.50
2019-04-29T23:38:42.759Z,78.42
2019-04-29T23:41:12.522Z,77.80
2019-04-29T23:43:41.975Z,74.87
2019-04-29T23:46:11.535Z,76.40
2019-04-29T23:48:41.840Z,70.83
2019-04-29T23:51:11.362Z,72.92
2019-04-29T23:53:41.169Z,67.35
2019-04-29T23:56:10.672Z,70.85
2019-04-29T23:58:50.267Z,70.90
